Time,TemperatureF,DewpointF,PressureIn,WindDirection,WindDirectionDegrees,WindSpeedMPH,WindSpeedGustMPH,Humidity,HourlyPrecipIn,Conditions,Clouds,dailyrainin,SoftwareType,DateUTC
2013-08-19 00:03:00,60.5,54.0,29.42,South,172,0.0,0.0,80,0.00,,,0.00,weatherlink.com 1.10,2013-08-19 04:03:00,
2013-08-19 00:18:00,59.9,54.0,29.42,South,172,0.0,0.0,82,0.00,,,0.00,weatherlink.com 1.10,2013-08-19 04:18:00,
2013-08-19 00:33:00,59.7,54.0,29.42,South,172,0.0,1.0,82,0.00,,,0.00,weatherlink.com 1.10,2013-08-19 04:33:00,
2013-08-19 00:48:00,60.0,55.0,29.42,SSW,211,0.0,2.0,82,0.00,,,0.00,weatherlink.com 1.10,2013-08-19 04:48:00,
2013-08-19 01:03:00,61.7,56.0,29.42,SSW,208,0.0,3.0,80,0.00,,,0.00,weatherlink.com 1.10,2013-08-19 05:03:00,
2013-08-19 01:19:00,60.7,55.0,29.42,SSW,208,0.0,0.0,81,0.00,,,0.00,weatherlink.com 1.10,2013-08-19 05:19:00,
2013-08-19 01:34:00,59.7,54.0,29.42,SSW,208,0.0,0.0,82,0.00,,,0.00,weatherlink.com 1.10,2013-08-19 05:34:00,
2013-08-19 01:49:00,58.5,54.0,29.42,SSW,208,0.0,0.0,84,0.00,,,0.00,weatherlink.com 1.10,2013-08-19 05:49:00,
2013-08-19 02:04:00,58.0,54.0,29.42,SSW,208,0.0,0.0,85,0.00,,,0.00,weatherlink.com 1.10,2013-08-19 06:04:00,
2013-08-19 02:19:00,57.7,53.0,29.41,SSW,208,0.0,0.0,85,0.00,,,0.00,weatherlink.com 1.10,2013-08-19 06:19:00,
2013-08-19 02:34:00,57.1,53.0,29.41,SSW,208,0.0,0.0,86,0.00,,,0.00,weatherlink.com 1.10,2013-08-19 06:34:00,
2013-08-19 02:49:00,56.6,53.0,29.41,SSW,208,0.0,0.0,87,0.00,,,0.00,weatherlink.com 1.10,2013-08-19 06:49:00,
2013-08-19 03:04:00,56.2,52.0,29.41,SSW,208,0.0,1.0,87,0.00,,,0.00,weatherlink.com 1.10,2013-08-19 07:04:00,
2013-08-19 03:19:00,55.9,52.0,29.41,SSW,208,0.0,0.0,87,0.00,,,0.00,weatherlink.com 1.10,2013-08-19 07:19:00,
2013-08-19 03:34:00,55.6,52.0,29.41,SSW,208,0.0,0.0,88,0.00,,,0.00,weatherlink.com 1.10,2013-08-19 07:34:00,
2013-08-19 03:49:00,55.0,52.0,29.41,SSW,208,0.0,0.0,88,0.00,,,0.00,weatherlink.com 1.10,2013-08-19 07:49:00,
2013-08-19 04:04:00,54.8,51.0,29.41,SSW,208,0.0,0.0,88,0.00,,,0.00,weatherlink.com 1.10,2013-08-19 08:04:00,
2013-08-19 04:34:00,54.2,51.0,29.41,SSW,208,0.0,0.0,88,0.00,,,0.00,weatherlink.com 1.10,2013-08-19 08:34:00,
2013-08-19 04:49:00,54.0,51.0,29.41,SSW,208,0.0,0.0,89,0.00,,,0.00,weatherlink.com 1.10,2013-08-19 08:49:00,
2013-08-19 05:04:00,53.8,51.0,29.41,SSW,208,0.0,0.0,89,0.00,,,0.00,weatherlink.com 1.10,2013-08-19 09:04:00,
2013-08-19 05:19:00,53.7,51.0,29.41,SSW,208,0.0,0.0,89,0.00,,,0.00,weatherlink.com 1.10,2013-08-19 09:19:00,
2013-08-19 05:35:00,53.7,51.0,29.41,SSW,208,0.0,1.0,89,0.00,,,0.00,weatherlink.com 1.10,2013-08-19 09:35:00,
2013-08-19 05:49:00,53.3,50.0,29.41,SSW,208,0.0,0.0,89,0.00,,,0.00,weatherlink.com 1.10,2013-08-19 09:49:00,
2013-08-19 06:04:00,53.4,50.0,29.41,SSW,208,0.0,0.0,89,0.00,,,0.00,weatherlink.com 1.10,2013-08-19 10:04:00,
2013-08-19 06:19:00,53.5,50.0,29.42,SSW,207,0.0,1.0,89,0.00,,,0.00,weatherlink.com 1.10,2013-08-19 10:19:00,
2013-08-19 06:34:00,53.6,51.0,29.43,SSW,207,0.0,1.0,89,0.00,,,0.00,weatherlink.com 1.10,2013-08-19 10:34:00,
2013-08-19 06:49:00,53.9,51.0,29.43,SSW,207,0.0,1.0,89,0.00,,,0.00,weatherlink.com 1.10,2013-08-19 10:49:00,
2013-08-19 07:04:00,53.9,51.0,29.43,SSW,207,0.0,0.0,89,0.00,,,0.00,weatherlink.com 1.10,2013-08-19 11:04:00,
2013-08-19 07:19:00,53.8,51.0,29.43,SSW,207,0.0,0.0,89,0.00,,,0.00,weatherlink.com 1.10,2013-08-19 11:19:00,
2013-08-19 07:34:00,54.0,51.0,29.43,SSW,207,0.0,0.0,89,0.00,,,0.00,weatherlink.com 1.10,2013-08-19 11:34:00,
2013-08-19 07:49:00,54.9,52.0,29.43,SSW,207,0.0,0.0,89,0.00,,,0.00,weatherlink.com 1.10,2013-08-19 11:49:00,
2013-08-19 08:04:00,55.8,53.0,29.43,SSW,207,0.0,0.0,89,0.00,,,0.00,weatherlink.com 1.10,2013-08-19 12:04:00,
2013-08-19 08:19:00,57.3,54.0,29.43,SW,236,2.0,2.0,89,0.00,,,0.00,weatherlink.com 1.10,2013-08-19 12:19:00,
2013-08-19 08:34:00,59.0,55.0,29.43,SW,236,0.0,1.0,87,0.00,,,0.00,weatherlink.com 1.10,2013-08-19 12:34:00,
2013-08-19 08:49:00,60.8,56.0,29.43,SW,226,0.0,2.0,85,0.00,,,0.00,weatherlink.com 1.10,2013-08-19 12:49:00,
2013-08-19 09:04:00,62.8,57.0,29.43,WNW,291,2.0,2.0,82,0.00,,,0.00,weatherlink.com 1.10,2013-08-19 13:04:00,
2013-08-19 09:19:00,64.8,58.0,29.42,SW,223,2.0,2.0,79,0.00,,,0.00,weatherlink.com 1.10,2013-08-19 13:19:00,
2013-08-19 09:34:00,66.8,59.0,29.42,SSW,211,0.0,2.0,76,0.00,,,0.00,weatherlink.com 1.10,2013-08-19 13:34:00,
2013-08-19 09:49:00,69.4,60.0,29.42,WSW,249,2.0,3.0,71,0.00,,,0.00,weatherlink.com 1.10,2013-08-19 13:49:00,
2013-08-19 10:05:00,71.7,59.0,29.41,SSW,195,0.0,4.0,65,0.00,,,0.00,weatherlink.com 1.10,2013-08-19 14:05:00,
2013-08-19 10:20:00,73.5,60.0,29.41,SW,235,4.0,6.0,62,0.00,,,0.00,weatherlink.com 1.10,2013-08-19 14:20:00,
2013-08-19 10:35:00,74.8,59.0,29.41,SW,227,3.0,6.0,59,0.00,,,0.00,weatherlink.com 1.10,2013-08-19 14:35:00,
2013-08-19 10:50:00,75.5,59.0,29.41,WSW,255,0.0,7.0,56,0.00,,,0.00,weatherlink.com 1.10,2013-08-19 14:50:00,
2013-08-19 11:05:00,76.3,59.0,29.41,WSW,246,2.0,4.0,56,0.00,,,0.00,weatherlink.com 1.10,2013-08-19 15:05:00,
2013-08-19 11:20:00,77.1,58.0,29.41,West,260,4.0,5.0,51,0.00,,,0.00,weatherlink.com 1.10,2013-08-19 15:20:00,
2013-08-19 11:35:00,77.4,57.0,29.41,SSW,205,4.0,7.0,50,0.00,,,0.00,weatherlink.com 1.10,2013-08-19 15:35:00,
2013-08-19 11:50:00,78.3,56.0,29.41,SSW,197,2.0,6.0,47,0.00,,,0.00,weatherlink.com 1.10,2013-08-19 15:50:00,
2013-08-19 12:05:00,78.8,57.0,29.41,SSW,204,5.0,7.0,48,0.00,,,0.00,weatherlink.com 1.10,2013-08-19 16:05:00,
2013-08-19 12:20:00,79.7,59.0,29.41,SW,236,3.0,6.0,49,0.00,,,0.00,weatherlink.com 1.10,2013-08-19 16:20:00,
2013-08-19 12:35:00,80.8,59.0,29.41,NW,312,2.0,7.0,47,0.00,,,0.00,weatherlink.com 1.10,2013-08-19 16:35:00,
2013-08-19 12:50:00,80.5,59.0,29.40,SSW,197,6.0,10.0,48,0.00,,,0.00,weatherlink.com 1.10,2013-08-19 16:50:00,
2013-08-19 13:05:00,81.3,59.0,29.40,South,186,3.0,9.0,47,0.00,,,0.00,weatherlink.com 1.10,2013-08-19 17:05:00,
2013-08-19 13:20:00,81.7,59.0,29.39,NE,35,2.0,7.0,47,0.00,,,0.00,weatherlink.com 1.10,2013-08-19 17:20:00,
2013-08-19 13:35:00,82.4,59.0,29.39,SSW,197,2.0,8.0,45,0.00,,,0.00,weatherlink.com 1.10,2013-08-19 17:35:00,
2013-08-19 13:50:00,82.3,59.0,29.38,SSW,205,3.0,10.0,45,0.00,,,0.00,weatherlink.com 1.10,2013-08-19 17:50:00,
2013-08-19 14:05:00,84.7,60.0,29.38,SSW,211,6.0,10.0,43,0.00,,,0.00,weatherlink.com 1.10,2013-08-19 18:05:00,
2013-08-19 14:20:00,83.4,60.0,29.37,WSW,249,5.0,12.0,45,0.00,,,0.00,weatherlink.com 1.10,2013-08-19 18:20:00,
2013-08-19 14:35:00,84.0,60.0,29.37,SSW,203,1.0,8.0,45,0.00,,,0.00,weatherlink.com 1.10,2013-08-19 18:35:00,
2013-08-19 14:50:00,84.1,59.0,29.36,SW,235,4.0,9.0,43,0.00,,,0.00,weatherlink.com 1.10,2013-08-19 18:50:00,
2013-08-19 15:05:00,84.9,59.0,29.36,WSW,243,4.0,8.0,42,0.00,,,0.00,weatherlink.com 1.10,2013-08-19 19:05:00,
2013-08-19 15:20:00,84.9,59.0,29.36,SW,214,7.0,7.0,42,0.00,,,0.00,weatherlink.com 1.10,2013-08-19 19:20:00,
2013-08-19 15:35:00,85.7,59.0,29.35,SW,235,4.0,8.0,41,0.00,,,0.00,weatherlink.com 1.10,2013-08-19 19:35:00,
2013-08-19 15:51:00,85.4,58.0,29.34,SW,229,3.0,8.0,39,0.00,,,0.00,weatherlink.com 1.10,2013-08-19 19:51:00,
2013-08-19 16:05:00,84.8,59.0,29.34,WNW,285,5.0,9.0,41,0.00,,,0.00,weatherlink.com 1.10,2013-08-19 20:05:00,
2013-08-19 16:20:00,85.0,59.0,29.34,SW,232,2.0,9.0,41,0.00,,,0.00,weatherlink.com 1.10,2013-08-19 20:20:00,
2013-08-19 16:35:00,86.0,60.0,29.33,SW,219,3.0,7.0,41,0.00,,,0.00,weatherlink.com 1.10,2013-08-19 20:35:00,
2013-08-19 16:51:00,85.0,59.0,29.33,South,191,3.0,13.0,41,0.00,,,0.00,weatherlink.com 1.10,2013-08-19 20:51:00,
2013-08-19 17:06:00,84.5,57.0,29.33,SSW,207,7.0,12.0,39,0.00,,,0.00,weatherlink.com 1.10,2013-08-19 21:06:00,
2013-08-19 17:21:00,85.1,57.0,29.33,WSW,243,3.0,10.0,39,0.00,,,0.00,weatherlink.com 1.10,2013-08-19 21:21:00,
2013-08-19 17:36:00,84.6,58.0,29.33,West,259,4.0,10.0,40,0.00,,,0.00,weatherlink.com 1.10,2013-08-19 21:36:00,
2013-08-19 17:51:00,84.8,58.0,29.34,SW,224,4.0,11.0,40,0.00,,,0.00,weatherlink.com 1.10,2013-08-19 21:51:00,
2013-08-19 18:06:00,83.9,58.0,29.33,WSW,243,5.0,10.0,42,0.00,,,0.00,weatherlink.com 1.10,2013-08-19 22:06:00,
2013-08-19 18:21:00,84.1,58.0,29.33,SSW,207,2.0,9.0,41,0.00,,,0.00,weatherlink.com 1.10,2013-08-19 22:21:00,
2013-08-19 18:36:00,83.4,59.0,29.33,SSW,200,1.0,11.0,43,0.00,,,0.00,weatherlink.com 1.10,2013-08-19 22:36:00,
2013-08-19 18:51:00,82.7,59.0,29.33,SW,224,5.0,11.0,44,0.00,,,0.00,weatherlink.com 1.10,2013-08-19 22:51:00,
2013-08-19 19:06:00,82.3,59.0,29.33,SW,233,5.0,6.0,45,0.00,,,0.00,weatherlink.com 1.10,2013-08-19 23:06:00,
2013-08-19 19:21:00,81.7,59.0,29.33,SW,229,2.0,6.0,47,0.00,,,0.00,weatherlink.com 1.10,2013-08-19 23:21:00,
2013-08-19 19:36:00,81.0,59.0,29.33,SW,225,4.0,7.0,48,0.00,,,0.00,weatherlink.com 1.10,2013-08-19 23:36:00,
2013-08-19 19:51:00,80.2,60.0,29.32,SSW,195,3.0,6.0,50,0.00,,,0.00,weatherlink.com 1.10,2013-08-19 23:51:00,
2013-08-19 20:06:00,79.2,60.0,29.33,SW,233,1.0,7.0,52,0.00,,,0.00,weatherlink.com 1.10,2013-08-20 00:06:00,
2013-08-19 20:21:00,78.1,60.0,29.33,SW,228,1.0,5.0,54,0.00,,,0.00,weatherlink.com 1.10,2013-08-20 00:21:00,
2013-08-19 20:36:00,76.8,60.0,29.33,WSW,238,0.0,3.0,56,0.00,,,0.00,weatherlink.com 1.10,2013-08-20 00:36:00,
2013-08-19 20:51:00,75.9,60.0,29.33,SW,231,0.0,2.0,58,0.00,,,0.00,weatherlink.com 1.10,2013-08-20 00:51:00,
2013-08-19 21:06:00,75.0,60.0,29.34,SW,228,2.0,2.0,60,0.00,,,0.00,weatherlink.com 1.10,2013-08-20 01:06:00,
2013-08-19 21:21:00,73.9,60.0,29.34,SW,217,0.0,5.0,62,0.00,,,0.00,weatherlink.com 1.10,2013-08-20 01:21:00,
2013-08-19 21:36:00,72.4,59.0,29.35,SW,231,0.0,2.0,64,0.00,,,0.00,weatherlink.com 1.10,2013-08-20 01:36:00,
2013-08-19 21:51:00,71.4,60.0,29.35,SW,229,0.0,1.0,67,0.00,,,0.00,weatherlink.com 1.10,2013-08-20 01:51:00,
2013-08-19 22:06:00,71.1,60.0,29.35,SW,216,1.0,1.0,67,0.00,,,0.00,weatherlink.com 1.10,2013-08-20 02:06:00,
2013-08-19 22:21:00,70.5,59.0,29.35,SSW,206,0.0,3.0,68,0.00,,,0.00,weatherlink.com 1.10,2013-08-20 02:21:00,
2013-08-19 22:36:00,70.4,59.0,29.35,SW,235,0.0,2.0,68,0.00,,,0.00,weatherlink.com 1.10,2013-08-20 02:36:00,
2013-08-19 22:51:00,69.5,59.0,29.35,SW,214,0.0,1.0,69,0.00,,,0.00,weatherlink.com 1.10,2013-08-20 02:51:00,
2013-08-19 23:06:00,69.0,59.0,29.35,SW,228,0.0,1.0,70,0.00,,,0.00,weatherlink.com 1.10,2013-08-20 03:06:00,
2013-08-19 23:21:00,68.1,58.0,29.36,SW,228,0.0,1.0,71,0.00,,,0.00,weatherlink.com 1.10,2013-08-20 03:21:00,
2013-08-19 23:36:00,67.4,58.0,29.35,South,170,0.0,1.0,73,0.00,,,0.00,weatherlink.com 1.10,2013-08-20 03:36:00,
2013-08-19 23:51:00,66.9,58.0,29.36,South,170,0.0,1.0,74,0.00,,,0.00,weatherlink.com 1.10,2013-08-20 03:51:00,